PWSweather.com
Personal Weather Stations
Station Observations
ZBYSOV
ZbysovCZ 66411

ZbysovCZ 66411

Lat: 49.1578064, Lon: 16.3474598

Elevation: 350

Station Type: Davis Vantage Pro 2

http://www.pocasizbysov.info/

High Low Average
Temperature 76.8°F24.9°F 48.9°F9.4°F 63.4°F17.4°F
Dew Point 55.1°F12.8°F 44.1°F6.7°F 48.2°F9.0°F
Winds 20.2 mph SW32.5 mph SW Calm Calm 4.5 mph 7.2 mph
Wind Gusts 27.0 mph43.5 mph -- 7.3 mph11.7 mph
Humidity 84% 34% 61%
Pressure 29.96 in1014.60 in 29.77 in1008.10 in -
Precipitation 0.00 in0.00 in - -
Hour Temp Dew Point Humidity Winds Wind Gusts Pressure Precip Precip Rate Daily Precip Total
12:00 AM 55.2°F12.9°C 46.0°F7.8°C 71% Calm Calm -- 29.95 in1014.2 mb 0.00 in0.0 mm 0.00 in0.0 mm 0.00 in0.0 mm
12:30 AM 54.9°F12.7°C 46.0°F7.8°C 72% Calm Calm -- 29.95 in1014.2 mb 0.00 in0.0 mm 0.00 in0.0 mm 0.00 in0.0 mm
01:00 AM 56.5°F13.6°C 46.4°F8.0°C 69% Calm Calm -- 29.96 in1014.6 mb 0.00 in0.0 mm 0.00 in0.0 mm 0.00 in0.0 mm
03:00 AM 51.4°F10.8°C 45.2°F7.3°C 79% Calm Calm -- 29.92 in1013.2 mb 0.00 in0.0 mm 0.00 in0.0 mm 0.00 in0.0 mm
03:30 AM 50.4°F10.2°C 44.8°F7.1°C 81% 1.7 mph N2.7 kmh N 2.0 mph3.2 kmh 29.91 in1012.9 mb 0.00 in0.0 mm 0.00 in0.0 mm 0.00 in0.0 mm
04:00 AM 49.6°F9.8°C 44.1°F6.7°C 81% 1.2 mph N1.9 kmh N 2.0 mph3.2 kmh 29.91 in1012.9 mb 0.00 in0.0 mm 0.00 in0.0 mm 0.00 in0.0 mm
06:00 AM 48.9°F9.4°C 44.3°F6.8°C 84% Calm Calm -- 29.92 in1013.2 mb 0.00 in0.0 mm 0.00 in0.0 mm 0.00 in0.0 mm
06:30 AM 50.2°F10.1°C 45.2°F7.3°C 83% Calm Calm -- 29.92 in1013.2 mb 0.00 in0.0 mm 0.00 in0.0 mm 0.00 in0.0 mm
07:00 AM 52.2°F11.2°C 46.8°F8.2°C 82% 1.0 mph SSE1.6 kmh SSE 2.0 mph3.2 kmh 29.92 in1013.2 mb 0.00 in0.0 mm 0.00 in0.0 mm 0.00 in0.0 mm
09:00 AM 62.1°F16.7°C 52.9°F11.6°C 72% 1.4 mph SE2.3 kmh SE 4.0 mph6.4 kmh 29.90 in1012.5 mb 0.00 in0.0 mm 0.00 in0.0 mm 0.00 in0.0 mm
09:30 AM 65.8°F18.8°C 53.3°F11.8°C 64% 4.6 mph S7.4 kmh S 9.0 mph14.5 kmh 29.89 in1012.2 mb 0.00 in0.0 mm 0.00 in0.0 mm 0.00 in0.0 mm
10:00 AM 69.6°F20.9°C 55.1°F12.8°C 60% 2.5 mph SSE4.0 kmh SSE 4.0 mph6.4 kmh 29.87 in1011.5 mb 0.00 in0.0 mm 0.00 in0.0 mm 0.00 in0.0 mm
12:00 PM 75.9°F24.4°C 48.5°F9.2°C 38% 20.2 mph SW32.5 kmh SW 27.0 mph43.5 kmh 29.84 in1010.5 mb 0.00 in0.0 mm 0.00 in0.0 mm 0.00 in0.0 mm
12:30 PM 76.6°F24.8°C 49.1°F9.5°C 38% 12.4 mph WSW20.0 kmh WSW 20.0 mph32.2 kmh 29.83 in1010.2 mb 0.00 in0.0 mm 0.00 in0.0 mm 0.00 in0.0 mm
01:00 PM 76.8°F24.9°C 46.3°F7.9°C 34% 8.8 mph S14.2 kmh S 15.0 mph24.1 kmh 29.82 in1009.8 mb 0.00 in0.0 mm 0.00 in0.0 mm 0.00 in0.0 mm
03:00 PM 74.5°F23.6°C 47.9°F8.8°C 39% 6.6 mph SW10.6 kmh SW 11.0 mph17.7 kmh 29.80 in1009.1 mb 0.00 in0.0 mm 0.00 in0.0 mm 0.00 in0.0 mm
03:30 PM 75.9°F24.4°C 47.8°F8.8°C 37% 13.2 mph W21.2 kmh W 24.0 mph38.6 kmh 29.80 in1009.1 mb 0.00 in0.0 mm 0.00 in0.0 mm 0.00 in0.0 mm
04:00 PM 76.3°F24.6°C 48.8°F9.3°C 38% 8.3 mph SW13.4 kmh SW 17.0 mph27.4 kmh 29.79 in1008.8 mb 0.00 in0.0 mm 0.00 in0.0 mm 0.00 in0.0 mm
06:00 PM 72.3°F22.4°C 49.8°F9.9°C 45% 0.7 mph SW1.1 kmh SW 2.0 mph3.2 kmh 29.77 in1008.1 mb 0.00 in0.0 mm 0.00 in0.0 mm 0.00 in0.0 mm
06:30 PM 71.1°F21.7°C 52.0°F11.1°C 51% 1.9 mph WSW3.1 kmh WSW 3.0 mph4.8 kmh 29.78 in1008.5 mb 0.00 in0.0 mm 0.00 in0.0 mm 0.00 in0.0 mm
07:00 PM 69.1°F20.6°C 50.7°F10.4°C 52% 6.5 mph NW10.5 kmh NW 9.0 mph14.5 kmh 29.79 in1008.8 mb 0.00 in0.0 mm 0.00 in0.0 mm 0.00 in0.0 mm
09:00 PM 62.6°F17.0°C 49.0°F9.4°C 61% 5.8 mph NNW9.3 kmh NNW 9.0 mph14.5 kmh 29.84 in1010.5 mb 0.00 in0.0 mm 0.00 in0.0 mm 0.00 in0.0 mm
09:30 PM 61.9°F16.6°C 48.7°F9.3°C 62% 6.6 mph NW10.6 kmh NW 9.0 mph14.5 kmh 29.85 in1010.8 mb 0.00 in0.0 mm 0.00 in0.0 mm 0.00 in0.0 mm
10:00 PM 61.9°F16.6°C 47.8°F8.8°C 60% 5.4 mph WNW8.7 kmh WNW 7.0 mph11.3 kmh 29.85 in1010.8 mb 0.00 in0.0 mm 0.00 in0.0 mm 0.00 in0.0 mm